Home > Products > Valid Products > MTR

000
SAUS43 KUNR 222058
MTR2WX
METAR K2WX 222056Z AUTO 27008KT 10/M01 A2932 RMK AO1 SLP938
T01001011 56008





000
SAUS43 KUNR 222057
MTRD07
METAR KD07 222056Z AUTO 25011KT 09/M02 A2937 RMK AO1 SLP963
T00941017 55015





000
SAUS43 KUNR 221957
MTRD07
METAR KD07 221956Z AUTO 20007KT 07/M02 A2936 RMK AO1 SLP962
T00671017





000
SAUS43 KUNR 221957
MTR2WX
METAR K2WX 221956Z AUTO 28010KT 08/M01 A2932 RMK AO1 SLP942
T00781011





000
SAUS43 KUNR 221858
MTR2WX
METAR K2WX 221856Z AUTO 25011KT 08/M02 A2933 RMK AO1 SLP945
T00781022





000
SAUS43 KUNR 221857
MTRD07
METAR KD07 221856Z AUTO 20007KT 06/M02 A2939 RMK AO1 SLP973
T00611017





000
SAUS43 KUNR 221758
MTR2WX
METAR K2WX 221756Z AUTO 25003KT 07/M02 A2934 RMK AO1 SLP949
T00721017 10072 21022 56016





000
SAUS43 KUNR 221758
MTRD07
METAR KD07 221756Z AUTO 21007KT 05/M02 A2942 RMK AO1 SLP982
T00501022 10050 21039 56019





000
SAUS43 KUNR 221658
MTR2WX
METAR K2WX 221656Z AUTO 27003KT 05/M02 A2936 RMK AO1 SLP959
T00501022





000
SAUS43 KUNR 221657
MTRD07
METAR KD07 221656Z AUTO 22007KT 03/M03 A2944 RMK AO1 SLP989
T00281033





000
SAUS43 KUNR 221558
MTR2WX
METAR K2WX 221556Z AUTO 12004KT 03/M03 A2936 RMK AO1 SLP962
T00281028





000
SAUS43 KUNR 221557
MTRD07
METAR KD07 221556Z AUTO 17011KT M01/M04 A2946 RMK AO1 SLP001
T10061039





000
SAUS43 KUNR 221458
MTR2WX
METAR K2WX 221456Z AUTO 20004KT 00/M04 A2939 RMK AO1 SLP977
T00001044 56019





000
SAUS43 KUNR 221457
MTRD07
METAR KD07 221456Z AUTO 17012KT M02/M05 A2948 RMK AO1 SLP008
T10221050 56025





000
SAUS43 KUNR 221357
MTR2WX
METAR K2WX 221356Z AUTO 23003KT M01/M05 A2941 RMK AO1 SLP984
T10111050





000
SAUS43 KUNR 221357
MTRD07
METAR KD07 221356Z AUTO 17015KT M03/M06 A2948 RMK AO1 SLP010
T10281056





000
SAUS43 KUNR 221257
MTR2WX
METAR K2WX 221256Z AUTO 13006KT M02/M06 A2941 RMK AO1 SLP986
T10221056





000
SAUS43 KUNR 221257
MTRD07
METAR KD07 221256Z AUTO M03/M06 A2953 RMK AO1 SLP024 T10331056





000
SAUS43 KUNR 221158
MTR2WX
METAR K2WX 221156Z AUTO 15006KT M02/M06 A2946 RMK AO1 SLP996
T10221056 10017 21028 58038





000
SAUS43 KUNR 221157
MTRD07
METAR KD07 221156Z AUTO 16013KT M02/M06 A2956 RMK AO1 SLP033
T10221056 10006 21039 58036





000
SAUS43 KUNR 221057
MTR2WX
METAR K2WX 221056Z AUTO 00000KT 01/M06 A2950 RMK AO1 SLP006
T00061056





000
SAUS43 KUNR 221057
MTRD07
METAR KD07 221056Z AUTO 16013KT M03/M06 A2961 RMK AO1 SLP050
T10331061





000
SAUS43 KUNR 220958
MTR2WX
METAR K2WX 220956Z AUTO 09006KT M02/M06 A2953 RMK AO1 SLP016
T10171056





000
SAUS43 KUNR 220958
MTR2WX
METAR K2WX 220956Z AUTO 09006KT M02/M06 A2953 RMK AO1 SLP016
T10171056





000
SAUS43 KUNR 220957
MTRD07
METAR KD07 220956Z AUTO 17014KT M03/M06 A2965 RMK AO1 SLP061
T10281056





000
SAUS43 KUNR 220957
MTRD07
METAR KD07 220956Z AUTO 17014KT M03/M06 A2965 RMK AO1 SLP061
T10281056





000
SAUS43 KUNR 220857
MTRD07
METAR KD07 220856Z AUTO 19013KT M02/M06 A2967 RMK AO1 SLP067
T10221056 58023





000
SAUS43 KUNR 220857
MTR2WX
METAR K2WX 220856Z AUTO 29003KT 01/M04 A2958 RMK AO1 SLP028
T00111044 58022





000
SAUS43 KUNR 220758
MTR2WX
METAR K2WX 220756Z AUTO 00000KT 01/M04 A2960 RMK AO1 SLP037
T00111044





000
SAUS43 KUNR 220757
MTRD07
METAR KD07 220756Z AUTO 18015KT M02/M05 A2970 RMK AO1 SLP076
T10171050





000
SAUS43 KUNR 220658
MTR2WX
METAR K2WX 220656Z AUTO 26007KT 01/M04 A2963 RMK AO1 SLP048
T00061044 401061083





000
SAUS43 KUNR 220657
MTRD07
METAR KD07 220656Z AUTO 18014KT M02/M05 A2973 RMK AO1 SLP089
T10221050 401061117





000
SAUS43 KUNR 220558
MTR2WX
METAR K2WX 220556Z AUTO 26007KT 01/M04 A2965 RMK AO1 SLP056
T00111039 10050 20000 56016





000
SAUS43 KUNR 220557
MTRD07
METAR KD07 220556Z AUTO 19012KT 01/M04 A2975 RMK AO1 SLP092
T00061044 10050 20000 58013





000
SAUS43 KUNR 220458
MTR2WX
METAR K2WX 220456Z AUTO 25007KT 01/M04 A2967 RMK AO1 SLP064
T00061039





000
SAUS43 KUNR 220457
MTRD07
METAR KD07 220456Z AUTO 21009KT 01/M04 A2977 RMK AO1 SLP098
T00111039





000
SAUS43 KUNR 220357
MTRD07
METAR KD07 220356Z AUTO 23008KT 02/M04 A2978 RMK AO1 SLP108
T00171039





000
SAUS43 KUNR 220357
MTRD07
METAR KD07 220356Z AUTO 23008KT 02/M04 A2978 RMK AO1 SLP108
T00171039





000
SAUS43 KUNR 220357
MTR2WX
METAR K2WX 220356Z AUTO 27007KT 01/M03 A2969 RMK AO1 SLP076
T00061033





000
SAUS43 KUNR 220357
MTR2WX
METAR K2WX 220356Z AUTO 27007KT 01/M03 A2969 RMK AO1 SLP076
T00061033





000
SAUS43 KUNR 220257
MTR2WX
METAR K2WX 220256Z AUTO 26008KT 01/M03 A2970 RMK AO1 SLP084
T00111033 58009





000
SAUS43 KUNR 220257
MTRD07
METAR KD07 220256Z AUTO 23007KT 03/M03 A2979 RMK AO1 SLP114
T00281033 58003





000
SAUS43 KUNR 220158
MTR2WX
METAR K2WX 220156Z AUTO 25011KT 01/M03 A2971 RMK AO1 SLP086
T00111033





000
SAUS43 KUNR 220157
MTRD07
METAR KD07 220156Z AUTO 24009KT 03/M03 A2979 RMK AO1 SLP115
T00331033





000
SAUS43 KUNR 220058
MTRD07
METAR KD07 220056Z AUTO 24009KT 04/M03 A2980 RMK AO1 SLP122
T00441033





000
SAUS43 KUNR 220057
MTR2WX
METAR K2WX 220056Z AUTO 25007KT 02/M03 A2973 RMK AO1 SLP093
T00221033





000
SAUS43 KUNR 212357
MTR2WX
METAR K2WX 212356Z AUTO 23007KT 05/M03 A2973 RMK AO1 SLP094
T00501033 10106 20050 51007





000
SAUS43 KUNR 212357
MTRD07
METAR KD07 212356Z AUTO 24007KT 05/M04 A2980 RMK AO1 SLP120
T00501039 10106 20050 51008





000
SAUS43 KUNR 212258
MTR2WX
METAR K2WX 212256Z AUTO 27005KT 08/M03 A2972 RMK AO1 SLP087
T00831033





000
SAUS43 KUNR 212257
MTRD07
METAR KD07 212256Z AUTO 25008KT 07/M03 A2980 RMK AO1 SLP120
T00671033





000
SAUS43 KUNR 212157
MTR2WX
METAR K2WX 212156Z AUTO 27013KT 10/M03 A2972 RMK AO1 SLP087
T01001033





000
SAUS43 KUNR 212157
MTRD07
METAR KD07 212156Z AUTO 28008KT 11/M03 A2979 RMK AO1 SLP115
T01061028





000
SAUS43 KUNR 212058
MTRD07
METAR KD07 212056Z AUTO 26009KT 10/M02 A2977 RMK AO1 SLP112
T01001022 56010





000
SAUS43 KUNR 212057
MTR2WX
METAR K2WX 212056Z AUTO 29016KT 11/M03 A2971 RMK AO1 PK WND
29027/2000 SLP084 T01061028 56008





000
SAUS43 KUNR 211957
MTRD07
METAR KD07 211956Z AUTO 27010KT 10/M03 A2978 RMK AO1 SLP112
T01001028





000
SAUS43 KUNR 211957
MTR2WX
METAR K2WX 211956Z AUTO 29022G29KT 09/M03 A2971 RMK AO1 PK WND
29029/1952 SLP086 T00941028





000
SAUS43 KUNR 211858
MTR2WX
METAR K2WX 211856Z AUTO 27015KT 09/M03 A2972 RMK AO1 SLP087
T00941028





000
SAUS43 KUNR 211857
MTRD07
METAR KD07 211856Z AUTO 27009KT 07/M03 A2979 RMK AO1 SLP120
T00721033





000
SAUS43 KUNR 211757
MTRD07
METAR KD07 211756Z AUTO 28012KT 07/M04 A2981 RMK AO1 SLP124
T00721039 10089 21078 55000





000
SAUS43 KUNR 211757
MTR2WX
METAR K2WX 211756Z AUTO 26014KT 08/M03 A2973 RMK AO1 SLP094
T00831028 10083 21028 50004





000
SAUS43 KUNR 211658
MTR2WX
METAR K2WX 211656Z AUTO 25008KT 06/M03 A2974 RMK AO1 SLP099
T00611033





000
SAUS43 KUNR 211657
MTRD07
METAR KD07 211656Z AUTO 28008KT 08/M03 A2981 RMK AO1 SLP124
T00831033





000
SAUS43 KUNR 211558
MTR2WX
METAR K2WX 211556Z AUTO 26007KT 03/M03 A2973 RMK AO1 SLP100
T00281033





000
SAUS43 KUNR 211558
MTR2WX
METAR K2WX 211556Z AUTO 26007KT 03/M03 A2973 RMK AO1 SLP100
T00281033





000
SAUS43 KUNR 211557
MTRD07
METAR KD07 211556Z AUTO 26006KT 03/M04 A2981 RMK AO1 SLP130
T00281039





000
SAUS43 KUNR 211557
MTRD07
METAR KD07 211556Z AUTO 26006KT 03/M04 A2981 RMK AO1 SLP130
T00281039





000
SAUS43 KUNR 211458
MTR2WX
METAR K2WX 211456Z AUTO 26009KT 00/M06 A2972 RMK AO1 SLP100
T00001056 55000





000
SAUS43 KUNR 211457
MTRD07
METAR KD07 211456Z AUTO 22005KT M02/M07 A2981 RMK AO1 SLP136
T10221067 53002





000
SAUS43 KUNR 211358
MTR2WX
METAR K2WX 211356Z AUTO 29010KT M01/M06 A2972 RMK AO1 SLP098
T10061061





000
SAUS43 KUNR 211358
MTRD07
METAR KD07 211356Z AUTO 24005KT M02/M07 A2979 RMK AO1 SLP130
T10221072





000
SAUS43 KUNR 211258
MTR2WX
METAR K2WX 211256Z AUTO 26009KT M01/M06 A2972 RMK AO1 SLP096
T10111056





000
SAUS43 KUNR 211257
MTRD07
METAR KD07 211256Z AUTO 22007KT M07/M10 A2979 RMK AO1 SLP134
T10721100





000
SAUS43 KUNR 211200 COR
MTR2WX
METAR K2WX 211156Z AUTO 28012KT M03/M07 A2972 RMK AO1 SLP100
T10281072 11028 21083 55005





000
SAUS43 KUNR 211159 COR
MTR2WX
METAR K2WX 211156Z AUTO 28012KT M03/M07 A2972 RMK AO1 SLP100
T10281072 11028 21083 55005





000
SAUS43 KUNR 211158
MTR2WX
METAR K2WX 211156Z AUTO 28012KT M03/M07 A2972 RMK AO1 SLP100
T10281072 11028 21083 55005





000
SAUS43 KUNR 211157
MTRD07
METAR KD07 211156Z AUTO 28009KT M05/M08 A2980 RMK AO1 SLP134
T10501083 11050 21117 56010





000
SAUS43 KUNR 211058
MTR2WX
METAR K2WX 211056Z AUTO 28006KT M04/M07 A2972 RMK AO1 SLP096
T10391072





000
SAUS43 KUNR 211057
MTRD07
METAR KD07 211056Z AUTO 26006KT M09/M11 A2980 RMK AO1 SLP138
T10891111





000
SAUS43 KUNR 210958
MTR2WX
METAR K2WX 210956Z AUTO 26004KT M07/M09 A2974 RMK AO1 SLP107
T10721094





000
SAUS43 KUNR 210957
MTRD07
METAR KD07 210956Z AUTO 25006KT M09/M12 A2982 RMK AO1 SLP142
T10941117





000
SAUS43 KUNR 210858
MTR2WX
METAR K2WX 210856Z AUTO 17003KT M07/M09 A2974 RMK AO1 SLP110
T10721089 56007





000
SAUS43 KUNR 210857
MTRD07
METAR KD07 210856Z AUTO 21007KT M11/M13 A2983 RMK AO1 SLP148
T11111128 58007





000
SAUS43 KUNR 210758
MTR2WX
METAR K2WX 210756Z AUTO 29003KT M06/M08 A2974 RMK AO1 SLP109
T10611083





000
SAUS43 KUNR 210758
MTRD07
METAR KD07 210756Z AUTO 19009KT M10/M12 A2984 RMK AO1 SLP152
T11001122





000
SAUS43 KUNR 210657
MTR2WX
METAR K2WX 210656Z AUTO 00000KT M07/M09 A2975 RMK AO1 SLP116
T10671089 400001100





000
SAUS43 KUNR 210657
MTRD07
METAR KD07 210656Z AUTO 18004KT M11/M13 A2986 RMK AO1 SLP157
T11111128 410331117





000
SAUS43 KUNR 210557
MTRD07
METAR KD07 210556Z AUTO 18015KT M09/M11 A2985 RMK AO1 SLP156
T10891111 11072 21094 56014





000
SAUS43 KUNR 210557
MTR2WX
METAR K2WX 210556Z AUTO 18003KT M07/M09 A2976 RMK AO1 SLP124
T10671089 11022 21072 56012





000
SAUS43 KUNR 210458
MTR2WX
METAR K2WX 210456Z AUTO 18005KT M07/M09 A2977 RMK AO1 SLP129
T10721089





000
SAUS43 KUNR 210457
MTRD07
METAR KD07 210456Z AUTO 17018KT M09/M11 A2986 RMK AO1 SLP160
T10941111





000
SAUS43 KUNR 210358
MTR2WX
METAR K2WX 210356Z AUTO 17009KT M07/M08 A2978 RMK AO1 SLP135
T10671083





000
SAUS43 KUNR 210358
MTRD07
METAR KD07 210356Z AUTO 17018KT M09/M11 A2988 RMK AO1 SLP169
T10941111





000
SAUS43 KUNR 210258
MTR2WX
METAR K2WX 210256Z AUTO 18009KT M06/M08 A2980 RMK AO1 SLP139
T10561078 56005





000
SAUS43 KUNR 210257
MTRD07
METAR KD07 210256Z AUTO 17018KT M09/M11 A2990 RMK AO1 SLP175
T10891111 58014





000
SAUS43 KUNR 210158
MTR2WX
METAR K2WX 210156Z AUTO 17009KT M04/M07 A2980 RMK AO1 SLP137
T10441072





000
SAUS43 KUNR 210157
MTRD07
METAR KD07 210156Z AUTO 17019KT M08/M10 A2992 RMK AO1 SLP180
T10831100





000
SAUS43 KUNR 210058
MTR2WX
METAR K2WX 210056Z AUTO 17012KT M03/M07 A2980 RMK AO1 SLP135
T10331067





000
SAUS43 KUNR 210057
MTRD07
METAR KD07 210056Z AUTO 16017KT M08/M11 A2993 RMK AO1 SLP184
T10831106





000
SAUS43 KUNR 202357
MTRD07
METAR KD07 202356Z AUTO 17016KT M07/M10 A2994 RMK AO1 SLP187
T10721100 11033 21072 56006





000
SAUS43 KUNR 202357
MTR2WX
METAR K2WX 202356Z AUTO 16011KT M03/M07 A2981 RMK AO1 SLP138
T10281067 10000 21061 56006





000
SAUS43 KUNR 202257
MTR2WX
METAR K2WX 202256Z AUTO 17008KT 00/M06 A2982 RMK AO1 SLP136
T00001056





000
SAUS43 KUNR 202257
MTRD07
METAR KD07 202256Z AUTO 16012KT M06/M09 A2995 RMK AO1 SLP188
T10561094





000
SAUS43 KUNR 202157
MTRD07
METAR KD07 202156Z AUTO 17015KT M04/M08 A2995 RMK AO1 SLP188
T10391083





000
SAUS43 KUNR 202157
MTR2WX
METAR K2WX 202156Z AUTO 18008KT 00/M04 A2982 RMK AO1 SLP137
T00001044





000
SAUS43 KUNR 202057
MTR2WX
METAR K2WX 202056Z AUTO 16011KT M02/M06 A2983 RMK AO1 SLP143
T10171056 56017





000
SAUS43 KUNR 202057
MTRD07
METAR KD07 202056Z AUTO 16015KT M03/M08 A2996 RMK AO1 SLP190
T10331083 56020





000
SAUS43 KUNR 201957
MTR2WX
METAR K2WX 201956Z AUTO 16009KT M02/M07 A2985 RMK AO1 SLP150
T10221067





000
SAUS43 KUNR 201957
MTRD07
METAR KD07 201956Z AUTO 16013KT M04/M09 A2998 RMK AO1 SLP198
T10441089





000
SAUS43 KUNR 201858
MTRD07
METAR KD07 201856Z AUTO 17011KT M05/M09 A3000 RMK AO1 SLP210
T10501094





000
SAUS43 KUNR 201858
MTR2WX
METAR K2WX 201856Z AUTO 16010KT M04/M07 A2986 RMK AO1 SLP160
T10441072





000
SAUS43 KUNR 201757
MTR2WX
METAR K2WX 201756Z AUTO 17008KT M07/M09 A2989 RMK AO1 SLP173
T10671089 11061 21100 58004





000
SAUS43 KUNR 201757
MTRD07
METAR KD07 201756Z AUTO 16011KT M06/M09 A3003 RMK AO1 SLP221
T10561094 11056 21094 58006





000
SAUS43 KUNR 201657
MTR2WX
METAR K2WX 201656Z AUTO 16009KT M08/M09 A2990 RMK AO1 SLP179
T10781094





000
SAUS43 KUNR 201657
MTRD07
METAR KD07 201656Z AUTO 18012KT M07/M10 A3003 RMK AO1 SLP224
T10721100





000
SAUS43 KUNR 201557
MTRD07
METAR KD07 201556Z AUTO 15007KT M09/M11 A3004 RMK AO1 SLP229
T10891111





000
SAUS43 KUNR 201557
MTR2WX
METAR K2WX 201556Z AUTO 16009KT M09/M11 A2992 RMK AO1 SLP184
T10891111





000
SAUS43 KUNR 201457
MTRD07
METAR KD07 201456Z AUTO 16005KT M09/M11 A3005 RMK AO1 SLP229
T10941106 53003





000
SAUS43 KUNR 201457
MTR2WX
METAR K2WX 201456Z AUTO 16009KT M09/M11 A2990 RMK AO1 SLP180
T10941111 56006





000
SAUS43 KUNR 201358
MTR2WX
METAR K2WX 201356Z AUTO 17008KT M08/M10 A2990 RMK AO1 SLP179
T10831100





000
SAUS43 KUNR 201358
MTRD07
METAR KD07 201356Z AUTO 18005KT M09/M10 A3003 RMK AO1 SLP224
T10891100





000
SAUS43 KUNR 201258
MTR2WX
METAR K2WX 201256Z AUTO 19004KT M07/M09 A2991 RMK AO1 SLP180
T10721089





000
SAUS43 KUNR 201257
MTRD07
METAR KD07 201256Z AUTO 00000KT M09/M10 A3004 RMK AO1 SLP223
T10891100





000
SAUS43 KUNR 201158
MTR2WX
METAR K2WX 201156Z AUTO 00000KT M07/M09 A2992 RMK AO1 SLP182
T10721089 11072 21100 55004





000
SAUS43 KUNR 201157
MTRD07
METAR KD07 201156Z AUTO 33003KT M09/M11 A3004 RMK AO1 SLP220
T10891111 11089 21139 56005





000
SAUS43 KUNR 201057
MTR2WX
METAR K2WX 201056Z AUTO 00000KT M07/M09 A2992 RMK AO1 SLP179
T10721089





000
SAUS43 KUNR 201057
MTRD07
METAR KD07 201056Z AUTO 34003KT M09/M11 A3004 RMK AO1 SLP221
T10891111





000
SAUS43 KUNR 200958
MTR2WX
METAR K2WX 200956Z AUTO 00000KT M08/M10 A2993 RMK AO1 SLP182
T10781100





000
SAUS43 KUNR 200958
MTR2WX
METAR K2WX 200956Z AUTO 00000KT M08/M10 A2993 RMK AO1 SLP182
T10781100





000
SAUS43 KUNR 200957
MTRD07
METAR KD07 200956Z AUTO 29003KT M09/M11 A3005 RMK AO1 SLP222
T10941111





000
SAUS43 KUNR 200957
MTRD07
METAR KD07 200956Z AUTO 29003KT M09/M11 A3005 RMK AO1 SLP222
T10941111





000
SAUS43 KUNR 200901 COR
MTR2WX
METAR K2WX 200856Z AUTO 27005KT M08/M09 A2994 RMK AO1 SLP183
T10781094 57007





000
SAUS43 KUNR 200900 COR
MTR2WX
METAR K2WX 200856Z AUTO 27005KT M08/M09 A2994 RMK AO1 SLP183
T10781094 57007





000
SAUS43 KUNR 200858 COR
MTR2WX
METAR K2WX 200856Z AUTO 27005KT M08/M09 A2994 RMK AO1 SLP183
T10781094 57007





000
SAUS43 KUNR 200857
MTR2WX
METAR K2WX 200856Z AUTO 27005KT M08/M09 A2994 RMK AO1 SLP183
T10781094 57007





000
SAUS43 KUNR 200857
MTRD07
METAR KD07 200856Z AUTO 28003KT M09/M12 A3005 RMK AO1 SLP226
T10941117 58004





000
SAUS43 KUNR 200757
MTR2WX
METAR K2WX 200756Z AUTO 31004KT M08/M10 A2994 RMK AO1 SLP184
T10781100





000
SAUS43 KUNR 200757
MTRD07
METAR KD07 200756Z AUTO 25003KT M11/M12 A3006 RMK AO1 SLP230
T11061122





000
SAUS43 KUNR 200658
MTR2WX
METAR K2WX 200656Z AUTO 00000KT M09/M11 A2995 RMK AO1 SLP192
T10891111 410391111





000
SAUS43 KUNR 200658
MTRD07
METAR KD07 200656Z AUTO 24004KT M12/M14 A3007 RMK AO1 SLP235
T11221139 410501150





000
SAUS43 KUNR 200600 COR
MTR2WX
METAR K2WX 200556Z AUTO VRB03KT M10/M13 A2996 RMK AO1 SLP197
T11001128 11072 21111 50000





000
SAUS43 KUNR 200559 COR
MTR2WX
METAR K2WX 200556Z AUTO VRB03KT M10/M13 A2996 RMK AO1 SLP197
T11001128 11072 21111 50000





000
SAUS43 KUNR 200558
MTRD07
METAR KD07 200556Z AUTO 23005KT M14/M16 A3007 RMK AO1 SLP236
T11391156 11072 21150 53003





000
SAUS43 KUNR 200458
MTR2WX
METAR K2WX 200456Z AUTO 31004KT M11/M12 A2997 RMK AO1 SLP200
T11061122





000
SAUS43 KUNR 200457
MTRD07
METAR KD07 200456Z AUTO 33007KT M12/M14 A3006 RMK AO1 SLP233
T11221144





000
SAUS43 KUNR 200358
MTR2WX
METAR K2WX 200356Z AUTO 33009KT M09/M12 A2995 RMK AO1 SLP194
T10941122





000
SAUS43 KUNR 200358
MTR2WX
METAR K2WX 200356Z AUTO 33009KT M09/M12 A2995 RMK AO1 SLP194
T10941122





000
SAUS43 KUNR 200357
MTRD07
METAR KD07 200356Z AUTO 35011KT M13/M14 A3006 RMK AO1 SLP233
T11281144





000
SAUS43 KUNR 200357
MTRD07
METAR KD07 200356Z AUTO 35011KT M13/M14 A3006 RMK AO1 SLP233
T11281144





000
SAUS43 KUNR 200258
MTR2WX
METAR K2WX 200256Z AUTO 31007KT M09/M12 A2996 RMK AO1 SLP195
T10941117 50001





000
SAUS43 KUNR 200257
MTRD07
METAR KD07 200256Z AUTO 36006KT M11/M13 A3006 RMK AO1 SLP230
T11111133 53005





000
SAUS43 KUNR 200158
MTR2WX
METAR K2WX 200156Z AUTO 32006KT M09/M12 A2996 RMK AO1 SLP197
T10941117





000
SAUS43 KUNR 200157
MTRD07
METAR KD07 200156Z AUTO 35008KT M11/M13 A3005 RMK AO1 SLP229
T11061128





000
SAUS43 KUNR 200057
MTR2WX
METAR K2WX 200056Z AUTO 30005KT M09/M12 A2996 RMK AO1 SLP196
T10941122





000
SAUS43 KUNR 200057
MTRD07
METAR KD07 200056Z AUTO 34010KT M09/M12 A3005 RMK AO1 SLP226
T10891122





000
SAUS43 KUNR 192258
MTR2WX
METAR K2WX 192256Z AUTO 33011KT M06/M10 A2995 RMK AO1 SLP187
T10611100





000
SAUS43 KUNR 192257
MTRD07
METAR KD07 192256Z AUTO 32013KT M07/M11 A3004 RMK AO1 SLP222
T10671111





000
SAUS43 KUNR 192158
MTR2WX
METAR K2WX 192156Z AUTO 31016KT M04/M09 A2995 RMK AO1 SLP183
T10441094





000
SAUS43 KUNR 192158
MTRD07
METAR KD07 192156Z AUTO 32015KT M06/M11 A3004 RMK AO1 SLP219
T10561106





    US Dept of Commerce
    National Oceanic and Atmospheric Administration
    National Weather Service
    1325 East West Highway
    Silver Spring, MD 20910
    Page Author: NWS Internet Services Team
Disclaimer
Information Quality
Credits
Glossary
Privacy Policy
Freedom of Information Act (FOIA)
About Us
Career Opportunities